< Cyclone 197606 1976 Season Cyclone 197608 >
Cyclone 197607 (VANESSA)
General InformationTrack Information on Google MapsDetailed Wind Information || ResourceGoogle EarthGE AnimationAtom FeedGeoJSON
Detalied Best Track (Time Zone = UTC)
Year Month Day Hour Lat. Long. Pressure (hPa) Wind (kt) Class Image Chart
1976 1 15 01 -17.7 121.9 1000 20 2 -- --
1976 1 15 04 -17.8 121.3 999 25 2 -- --
1976 1 15 07 -18.0 120.8 997 25 2 -- --
1976 1 15 10 -18.2 120.2 997 25 2 -- --
1976 1 15 13 -18.2 119.6 997 25 2 -- --
1976 1 15 16 -18.1 119.2 998 25 2 -- --
1976 1 15 19 -18.1 118.9 996 25 2 -- --
1976 1 15 22 -18.1 118.6 997 25 2 -- --
1976 1 16 01 -18.0 118.2 997 25 2 -- --
1976 1 16 04 -18.0 118.0 997 25 2 -- --
1976 1 16 07 -17.9 117.8 998 25 2 -- --
1976 1 16 10 -17.9 117.6 997 25 2 -- --
1976 1 16 13 -17.9 117.4 997 25 2 -- --
1976 1 16 16 -18.0 117.3 997 25 2 -- --
1976 1 16 19 -18.0 117.2 998 25 2 -- --
1976 1 16 22 -18.1 117.1 995 25 2 -- --
1976 1 17 01 -18.1 117.0 996 25 2 -- --
1976 1 17 04 -17.9 116.7 996 25 2 -- --
1976 1 17 07 -17.7 116.5 996 25 2 -- --
1976 1 17 10 -17.6 116.3 996 25 2 -- --
1976 1 17 13 -17.5 116.0 996 30 2 -- --
1976 1 17 16 -17.6 115.6 996 30 2 -- --
1976 1 17 19 -17.7 115.1 996 30 2 -- --
1976 1 17 22 -17.8 114.7 995 30 2 -- --
1976 1 18 01 -17.8 114.3 994 30 2 -- --
1976 1 18 04 -17.6 114.0 993 30 2 -- --
1976 1 18 07 -17.5 113.6 992 35 3 -- --
1976 1 18 10 -17.2 113.5 992 35 3 -- --
1976 1 18 13 -16.9 113.4 992 35 3 -- --
1976 1 18 16 -16.7 113.4 992 35 3 -- --
1976 1 18 19 -16.5 113.4 992 35 3 -- --
1976 1 18 22 -16.3 113.4 992 35 3 -- --
1976 1 19 01 -16.1 113.4 992 40 3 -- --
1976 1 19 04 -15.9 113.5 992 40 3 -- --
1976 1 19 07 -15.7 113.0 990 45 3 -- --
1976 1 19 10 -15.6 112.9 990 45 3 -- --
1976 1 19 13 -15.5 112.6 990 45 3 -- --
1976 1 19 16 -15.4 112.3 990 45 3 -- --
1976 1 19 19 -15.3 112.1 990 45 3 -- --
1976 1 19 22 -15.2 111.8 990 45 3 -- --
1976 1 20 01 -15.1 111.7 990 45 3 -- --
1976 1 20 04 -15.0 111.6 990 45 3 -- --
1976 1 20 07 -14.9 111.5 988 50 4 -- --
1976 1 20 10 -14.9 111.4 988 50 4 -- --
1976 1 20 13 -14.8 111.4 986 50 4 -- --
1976 1 20 16 -14.7 111.3 986 50 4 -- --
1976 1 20 19 -14.7 111.2 986 50 4 -- --
1976 1 20 22 -14.6 111.1 984 50 4 -- --
1976 1 21 01 -14.5 111.0 984 50 4 -- --
1976 1 21 04 -14.3 110.9 984 50 4 -- --
1976 1 21 07 -14.0 110.8 983 50 4 -- --
1976 1 21 10 -13.8 110.7 982 50 4 -- --
1976 1 21 13 -13.7 110.5 982 55 4 -- --
1976 1 21 16 -14.1 110.5 982 55 4 -- --
1976 1 21 19 -14.1 110.6 981 55 4 -- --
1976 1 21 22 -14.8 110.7 980 55 4 -- --
1976 1 22 01 -15.2 111.0 978 60 4 -- --
1976 1 22 04 -15.2 111.2 975 60 4 -- --
1976 1 22 07 -15.1 111.4 973 65 5 -- --
1976 1 22 10 -15.1 111.6 970 70 5 -- --
1976 1 22 13 -15.1 111.8 968 75 5 -- --
1976 1 22 16 -15.3 112.1 968 75 5 -- --
1976 1 22 19 -15.9 112.6 966 75 5 -- --
1976 1 22 22 -16.3 113.1 963 80 5 -- --
1976 1 23 01 -16.6 113.7 962 80 5 -- --
1976 1 23 04 -16.6 113.9 961 80 5 -- --
1976 1 23 07 -16.7 114.2 960 80 5 -- --
1976 1 23 10 -16.8 114.5 958 85 5 -- --
1976 1 23 13 -16.9 114.7 957 85 5 -- --
1976 1 23 16 -17.2 114.5 955 85 5 -- --
1976 1 23 19 -17.5 114.2 953 90 5 -- --
1976 1 23 22 -17.8 113.9 951 90 5 -- --
1976 1 24 01 -18.0 113.9 950 90 5 -- --
1976 1 24 04 -18.1 113.8 951 90 5 -- --
1976 1 24 07 -18.2 113.8 951 90 5 -- --
1976 1 24 10 -18.3 113.8 953 90 5 -- --
1976 1 24 13 -18.5 113.8 955 90 5 -- --
1976 1 24 16 -19.0 113.8 958 85 5 -- --
1976 1 24 18 -19.2 113.7 959 85 5 -- --
1976 1 24 19 -19.3 113.7 960 80 5 -- --
1976 1 24 22 -19.8 113.6 965 80 5 -- --
1976 1 25 01 -20.2 113.5 970 80 5 -- --
1976 1 25 04 -20.6 113.4 972 70 5 -- --
1976 1 25 07 -21.1 113.1 975 65 5 -- --
1976 1 25 10 -21.5 112.9 978 60 4 -- --
1976 1 25 13 -21.8 112.7 979 60 4 -- --
1976 1 25 16 -22.2 112.3 980 55 4 -- --
1976 1 25 19 -22.5 111.8 982 55 4 -- --
1976 1 25 22 -22.8 111.3 985 50 4 -- --
1976 1 26 01 -23.1 111.0 986 50 4 -- --
1976 1 26 04 -23.4 110.9 988 45 3 -- --
1976 1 26 07 -23.9 110.8 988 45 3 -- --
1976 1 26 10 -24.3 110.7 990 40 3 -- --
1976 1 26 13 -24.7 110.6 991 40 3 -- --
1976 1 26 16 -25.2 110.4 992 40 3 -- --
1976 1 26 19 -25.7 110.2 994 30 2 -- --
1976 1 26 22 -26.3 110.1 994 30 2 -- --
1976 1 27 01 -26.8 110.0 995 30 2 -- --
1976 1 27 04 -27.3 110.2 995 30 2 -- --
1976 1 27 07 -27.6 110.3 996 30 2 -- --
1976 1 27 10 -27.9 110.4 997 30 2 -- --
1976 1 27 13 -28.3 110.5 997 30 2 -- --
1976 1 27 16 -29.1 110.4 997 30 2 -- --
1976 1 27 19 -29.9 110.4 998 25 2 -- --
1976 1 27 22 -30.8 110.4 998 25 2 -- --
1976 1 28 01 -31.7 110.4 1000 25 2 -- --
< Cyclone 197606 1976 Season Cyclone 197608 >

Help